sensor_id;sensor_type;location;lat;lon;timestamp;pressure;altitude;pressure_sealevel;temperature;humidity
79309;BME280;68767;53.078;7.386;2023-07-13T00:02:04;101371.34;;;14.87;100.00
79309;BME280;68767;53.078;7.386;2023-07-13T00:04:31;101369.31;;;14.84;100.00
79309;BME280;68767;53.078;7.386;2023-07-13T00:06:59;101366.97;;;14.82;100.00
79309;BME280;68767;53.078;7.386;2023-07-13T00:09:26;101367.34;;;14.72;100.00
79309;BME280;68767;53.078;7.386;2023-07-13T00:11:55;101358.78;;;14.70;100.00
79309;BME280;68767;53.078;7.386;2023-07-13T00:14:24;101357.38;;;14.64;100.00
79309;BME280;68767;53.078;7.386;2023-07-13T00:16:52;101357.94;;;14.57;100.00
79309;BME280;68767;53.078;7.386;2023-07-13T00:19:22;101358.47;;;14.51;100.00
79309;BME280;68767;53.078;7.386;2023-07-13T00:21:49;101365.13;;;14.53;100.00
79309;BME280;68767;53.078;7.386;2023-07-13T00:24:18;101364.59;;;14.60;100.00
79309;BME280;68767;53.078;7.386;2023-07-13T00:26:50;101358.41;;;14.59;100.00
79309;BME280;68767;53.078;7.386;2023-07-13T00:29:18;101363.94;;;14.63;100.00
79309;BME280;68767;53.078;7.386;2023-07-13T00:31:45;101359.38;;;14.55;100.00
79309;BME280;68767;53.078;7.386;2023-07-13T00:34:12;101363.03;;;14.59;100.00
79309;BME280;68767;53.078;7.386;2023-07-13T00:36:40;101371.31;;;14.54;100.00
79309;BME280;68767;53.078;7.386;2023-07-13T00:39:07;101360.38;;;14.50;100.00
79309;BME280;68767;53.078;7.386;2023-07-13T00:41:34;101362.94;;;14.47;100.00
79309;BME280;68767;53.078;7.386;2023-07-13T00:44:03;101354.84;;;14.47;100.00
79309;BME280;68767;53.078;7.386;2023-07-13T00:46:33;101361.28;;;14.54;100.00
79309;BME280;68767;53.078;7.386;2023-07-13T00:49:05;101358.13;;;14.52;100.00
79309;BME280;68767;53.078;7.386;2023-07-13T00:51:51;101356.41;;;14.48;100.00
79309;BME280;68767;53.078;7.386;2023-07-13T00:54:25;101362.00;;;14.43;100.00
79309;BME280;68767;53.078;7.386;2023-07-13T00:56:55;101359.94;;;14.40;100.00
79309;BME280;68767;53.078;7.386;2023-07-13T00:59:24;101352.72;;;14.31;100.00
79309;BME280;68767;53.078;7.386;2023-07-13T01:01:52;101356.22;;;14.32;100.00
79309;BME280;68767;53.078;7.386;2023-07-13T01:04:20;101357.78;;;14.33;100.00
79309;BME280;68767;53.078;7.386;2023-07-13T01:06:47;101359.88;;;14.27;100.00
79309;BME280;68767;53.078;7.386;2023-07-13T01:09:14;101358.16;;;14.23;100.00
79309;BME280;68767;53.078;7.386;2023-07-13T01:11:42;101354.09;;;14.17;100.00
79309;BME280;68767;53.078;7.386;2023-07-13T01:14:11;101350.94;;;14.06;100.00
79309;BME280;68767;53.078;7.386;2023-07-13T01:16:40;101360.63;;;14.16;100.00
79309;BME280;68767;53.078;7.386;2023-07-13T01:21:50;101375.09;;;14.11;100.00
79309;BME280;68767;53.078;7.386;2023-07-13T01:24:17;101375.09;;;14.11;100.00
79309;BME280;68767;53.078;7.386;2023-07-13T01:26:44;101368.09;;;14.10;100.00
79309;BME280;68767;53.078;7.386;2023-07-13T01:29:11;101373.34;;;14.15;100.00
79309;BME280;68767;53.078;7.386;2023-07-13T01:31:38;101370.75;;;14.19;100.00
79309;BME280;68767;53.078;7.386;2023-07-13T01:34:08;101371.81;;;14.26;100.00
79309;BME280;68767;53.078;7.386;2023-07-13T01:36:36;101367.66;;;14.29;100.00
79309;BME280;68767;53.078;7.386;2023-07-13T01:39:04;101363.72;;;14.26;100.00
79309;BME280;68767;53.078;7.386;2023-07-13T01:41:33;101354.59;;;14.31;100.00
79309;BME280;68767;53.078;7.386;2023-07-13T01:44:00;101371.94;;;14.30;100.00
79309;BME280;68767;53.078;7.386;2023-07-13T01:46:27;101368.44;;;14.29;100.00
79309;BME280;68767;53.078;7.386;2023-07-13T01:48:55;101369.72;;;14.32;100.00
79309;BME280;68767;53.078;7.386;2023-07-13T01:51:22;101377.63;;;14.37;100.00
79309;BME280;68767;53.078;7.386;2023-07-13T01:53:52;101370.91;;;14.43;100.00
79309;BME280;68767;53.078;7.386;2023-07-13T01:56:22;101368.69;;;14.45;100.00
79309;BME280;68767;53.078;7.386;2023-07-13T01:58:51;101378.66;;;14.53;100.00
79309;BME280;68767;53.078;7.386;2023-07-13T02:01:19;101370.97;;;14.55;100.00
79309;BME280;68767;53.078;7.386;2023-07-13T02:03:46;101373.16;;;14.62;100.00
79309;BME280;68767;53.078;7.386;2023-07-13T02:06:13;101380.50;;;14.61;100.00
79309;BME280;68767;53.078;7.386;2023-07-13T02:08:41;101376.00;;;14.66;100.00
79309;BME280;68767;53.078;7.386;2023-07-13T02:11:08;101375.53;;;14.64;100.00
79309;BME280;68767;53.078;7.386;2023-07-13T02:13:35;101378.84;;;14.69;100.00
79309;BME280;68767;53.078;7.386;2023-07-13T02:16:03;101373.88;;;14.71;100.00
79309;BME280;68767;53.078;7.386;2023-07-13T02:18:30;101374.03;;;14.75;100.00
79309;BME280;68767;53.078;7.386;2023-07-13T02:20:57;101374.03;;;14.75;100.00
79309;BME280;68767;53.078;7.386;2023-07-13T02:23:24;101383.91;;;14.71;100.00
79309;BME280;68767;53.078;7.386;2023-07-13T02:25:58;101377.84;;;14.74;100.00
79309;BME280;68767;53.078;7.386;2023-07-13T02:28:27;101376.06;;;14.78;100.00
79309;BME280;68767;53.078;7.386;2023-07-13T02:30:54;101382.72;;;14.80;100.00
79309;BME280;68767;53.078;7.386;2023-07-13T02:33:21;101379.94;;;14.89;100.00
79309;BME280;68767;53.078;7.386;2023-07-13T02:35:48;101386.16;;;14.89;100.00
79309;BME280;68767;53.078;7.386;2023-07-13T02:38:15;101379.72;;;14.94;100.00
79309;BME280;68767;53.078;7.386;2023-07-13T02:40:42;101386.38;;;14.97;100.00
79309;BME280;68767;53.078;7.386;2023-07-13T02:43:09;101380.31;;;15.00;100.00
79309;BME280;68767;53.078;7.386;2023-07-13T02:45:36;101379.38;;;14.96;100.00
79309;BME280;68767;53.078;7.386;2023-07-13T02:48:03;101377.47;;;14.96;100.00
79309;BME280;68767;53.078;7.386;2023-07-13T02:50:30;101370.28;;;15.00;100.00
79309;BME280;68767;53.078;7.386;2023-07-13T02:52:57;101367.34;;;15.05;100.00
79309;BME280;68767;53.078;7.386;2023-07-13T02:55:24;101366.44;;;15.01;100.00
79309;BME280;68767;53.078;7.386;2023-07-13T02:57:51;101371.06;;;15.01;100.00
79309;BME280;68767;53.078;7.386;2023-07-13T03:00:18;101378.19;;;15.05;100.00
79309;BME280;68767;53.078;7.386;2023-07-13T03:02:45;101369.16;;;15.01;100.00
79309;BME280;68767;53.078;7.386;2023-07-13T03:05:12;101369.50;;;15.00;100.00
79309;BME280;68767;53.078;7.386;2023-07-13T03:07:41;101376.50;;;15.01;100.00
79309;BME280;68767;53.078;7.386;2023-07-13T03:10:09;101378.84;;;15.02;100.00
79309;BME280;68767;53.078;7.386;2023-07-13T03:12:42;101371.75;;;14.98;100.00
79309;BME280;68767;53.078;7.386;2023-07-13T03:15:17;101383.38;;;14.98;100.00
79309;BME280;68767;53.078;7.386;2023-07-13T03:17:47;101377.09;;;15.06;100.00
79309;BME280;68767;53.078;7.386;2023-07-13T03:20:15;101378.84;;;15.02;100.00
79309;BME280;68767;53.078;7.386;2023-07-13T03:22:42;101384.38;;;15.06;100.00
79309;BME280;68767;53.078;7.386;2023-07-13T03:25:10;101383.47;;;15.02;100.00
79309;BME280;68767;53.078;7.386;2023-07-13T03:27:37;101387.56;;;15.08;100.00
79309;BME280;68767;53.078;7.386;2023-07-13T03:30:07;101389.47;;;15.07;100.00
79309;BME280;68767;53.078;7.386;2023-07-13T03:32:35;101387.09;;;15.06;100.00
79309;BME280;68767;53.078;7.386;2023-07-13T03:35:02;101382.00;;;15.04;100.00
79309;BME280;68767;53.078;7.386;2023-07-13T03:37:31;101387.09;;;15.06;100.00
79309;BME280;68767;53.078;7.386;2023-07-13T03:39:58;101382.94;;;15.08;100.00
79309;BME280;68767;53.078;7.386;2023-07-13T03:42:25;101396.66;;;15.03;100.00
79309;BME280;68767;53.078;7.386;2023-07-13T03:44:53;101393.63;;;15.05;100.00
79309;BME280;68767;53.078;7.386;2023-07-13T03:47:22;101394.22;;;15.10;100.00
79309;BME280;68767;53.078;7.386;2023-07-13T03:49:49;101397.25;;;15.09;100.00
79309;BME280;68767;53.078;7.386;2023-07-13T03:52:16;101405.50;;;15.12;100.00
79309;BME280;68767;53.078;7.386;2023-07-13T03:54:43;101396.25;;;15.13;100.00
79309;BME280;68767;53.078;7.386;2023-07-13T03:57:10;101392.91;;;15.16;100.00
79309;BME280;68767;53.078;7.386;2023-07-13T03:59:37;101404.16;;;15.18;100.00
79309;BME280;68767;53.078;7.386;2023-07-13T04:02:06;101409.69;;;15.22;100.00
79309;BME280;68767;53.078;7.386;2023-07-13T04:04:33;101404.28;;;15.22;100.00
79309;BME280;68767;53.078;7.386;2023-07-13T04:07:00;101407.91;;;15.26;100.00
79309;BME280;68767;53.078;7.386;2023-07-13T04:09:27;101402.06;;;15.24;100.00
79309;BME280;68767;53.078;7.386;2023-07-13T04:11:54;101413.44;;;15.30;100.00
79309;BME280;68767;53.078;7.386;2023-07-13T04:14:21;101412.00;;;15.32;100.00
79309;BME280;68767;53.078;7.386;2023-07-13T04:16:48;101415.50;;;15.33;100.00
79309;BME280;68767;53.078;7.386;2023-07-13T04:19:15;101401.72;;;15.38;100.00
79309;BME280;68767;53.078;7.386;2023-07-13T04:21:42;101414.97;;;15.39;100.00
79309;BME280;68767;53.078;7.386;2023-07-13T04:24:09;101416.84;;;15.39;100.00
79309;BME280;68767;53.078;7.386;2023-07-13T04:26:36;101409.84;;;15.38;100.00
79309;BME280;68767;53.078;7.386;2023-07-13T04:29:06;101417.88;;;15.46;100.00
79309;BME280;68767;53.078;7.386;2023-07-13T04:31:33;101416.88;;;15.51;100.00
79309;BME280;68767;53.078;7.386;2023-07-13T04:34:01;101417.56;;;15.48;100.00
79309;BME280;68767;53.078;7.386;2023-07-13T04:36:28;101418.66;;;15.47;100.00
79309;BME280;68767;53.078;7.386;2023-07-13T04:38:55;101430.63;;;15.46;100.00
79309;BME280;68767;53.078;7.386;2023-07-13T04:41:22;101429.84;;;15.45;100.00
79309;BME280;68767;53.078;7.386;2023-07-13T04:43:49;101424.75;;;15.44;100.00
79309;BME280;68767;53.078;7.386;2023-07-13T04:46:17;101429.06;;;15.45;100.00
79309;BME280;68767;53.078;7.386;2023-07-13T04:48:46;101432.00;;;15.40;100.00
79309;BME280;68767;53.078;7.386;2023-07-13T04:51:13;101426.88;;;15.38;100.00
79309;BME280;68767;53.078;7.386;2023-07-13T04:53:40;101430.06;;;15.40;100.00
79309;BME280;68767;53.078;7.386;2023-07-13T04:56:07;101434.22;;;15.38;100.00
79309;BME280;68767;53.078;7.386;2023-07-13T04:58:34;101428.59;;;15.43;100.00
79309;BME280;68767;53.078;7.386;2023-07-13T05:01:05;101427.38;;;15.53;100.00
79309;BME280;68767;53.078;7.386;2023-07-13T05:03:33;101427.44;;;15.65;100.00
79309;BME280;68767;53.078;7.386;2023-07-13T05:06:03;101440.19;;;15.77;100.00
79309;BME280;68767;53.078;7.386;2023-07-13T05:08:31;101440.00;;;15.94;100.00
79309;BME280;68767;53.078;7.386;2023-07-13T05:11:02;101439.66;;;15.95;100.00
79309;BME280;68767;53.078;7.386;2023-07-13T05:13:30;101449.69;;;15.95;100.00
79309;BME280;68767;53.078;7.386;2023-07-13T05:15:59;101454.00;;;15.84;100.00
79309;BME280;68767;53.078;7.386;2023-07-13T05:18:27;101451.50;;;15.79;100.00
79309;BME280;68767;53.078;7.386;2023-07-13T05:23:26;101451.25;;;15.71;100.00
79309;BME280;68767;53.078;7.386;2023-07-13T05:25:53;101460.84;;;15.69;100.00
79309;BME280;68767;53.078;7.386;2023-07-13T05:28:21;101455.88;;;15.71;100.00
79309;BME280;68767;53.078;7.386;2023-07-13T05:30:49;101466.06;;;15.74;100.00
79309;BME280;68767;53.078;7.386;2023-07-13T05:33:16;101456.34;;;15.73;100.00
79309;BME280;68767;53.078;7.386;2023-07-13T05:35:43;101466.16;;;15.78;100.00
79309;BME280;68767;53.078;7.386;2023-07-13T05:38:10;101468.22;;;15.93;100.00
79309;BME280;68767;53.078;7.386;2023-07-13T05:40:37;101467.31;;;16.01;100.00
79309;BME280;68767;53.078;7.386;2023-07-13T05:43:05;101461.91;;;16.01;100.00
79309;BME280;68767;53.078;7.386;2023-07-13T05:45:32;101465.16;;;15.94;100.00
79309;BME280;68767;53.078;7.386;2023-07-13T05:47:58;101463.59;;;15.81;100.00
79309;BME280;68767;53.078;7.386;2023-07-13T05:50:26;101476.00;;;15.82;100.00
79309;BME280;68767;53.078;7.386;2023-07-13T05:52:53;101462.31;;;15.79;100.00
79309;BME280;68767;53.078;7.386;2023-07-13T05:55:20;101468.31;;;15.84;100.00
79309;BME280;68767;53.078;7.386;2023-07-13T05:57:47;101478.97;;;15.89;100.00
79309;BME280;68767;53.078;7.386;2023-07-13T06:00:15;101487.31;;;15.96;100.00
79309;BME280;68767;53.078;7.386;2023-07-13T06:02:42;101486.63;;;15.99;100.00
79309;BME280;68767;53.078;7.386;2023-07-13T06:05:09;101490.25;;;16.04;100.00
79309;BME280;68767;53.078;7.386;2023-07-13T06:07:37;101484.28;;;15.98;100.00
79309;BME280;68767;53.078;7.386;2023-07-13T06:10:04;101486.50;;;15.96;100.00
79309;BME280;68767;53.078;7.386;2023-07-13T06:12:31;101494.09;;;16.02;100.00
79309;BME280;68767;53.078;7.386;2023-07-13T06:14:58;101493.88;;;16.08;100.00
79309;BME280;68767;53.078;7.386;2023-07-13T06:17:25;101494.91;;;16.15;100.00
79309;BME280;68767;53.078;7.386;2023-07-13T06:19:52;101497.38;;;16.20;100.00
79309;BME280;68767;53.078;7.386;2023-07-13T06:22:19;101496.25;;;16.21;100.00
79309;BME280;68767;53.078;7.386;2023-07-13T06:24:46;101492.88;;;16.24;100.00
79309;BME280;68767;53.078;7.386;2023-07-13T06:27:13;101501.53;;;16.30;100.00
79309;BME280;68767;53.078;7.386;2023-07-13T06:29:40;101505.41;;;16.41;100.00
79309;BME280;68767;53.078;7.386;2023-07-13T06:32:07;101500.44;;;16.43;100.00
79309;BME280;68767;53.078;7.386;2023-07-13T06:34:34;101510.94;;;16.45;100.00
79309;BME280;68767;53.078;7.386;2023-07-13T06:37:01;101508.44;;;16.52;100.00
79309;BME280;68767;53.078;7.386;2023-07-13T06:39:28;101510.50;;;16.55;100.00
79309;BME280;68767;53.078;7.386;2023-07-13T06:41:55;101508.66;;;16.59;100.00
79309;BME280;68767;53.078;7.386;2023-07-13T06:44:22;101508.75;;;16.63;100.00
79309;BME280;68767;53.078;7.386;2023-07-13T06:46:49;101517.69;;;16.88;100.00
79309;BME280;68767;53.078;7.386;2023-07-13T06:49:16;101511.47;;;16.87;100.00
79309;BME280;68767;53.078;7.386;2023-07-13T06:51:43;101517.09;;;16.94;100.00
79309;BME280;68767;53.078;7.386;2023-07-13T06:54:10;101525.47;;;17.01;100.00
79309;BME280;68767;53.078;7.386;2023-07-13T06:56:37;101530.19;;;17.04;100.00
79309;BME280;68767;53.078;7.386;2023-07-13T06:59:04;101529.19;;;17.09;100.00
79309;BME280;68767;53.078;7.386;2023-07-13T07:01:31;101521.13;;;17.12;100.00
79309;BME280;68767;53.078;7.386;2023-07-13T07:03:58;101536.22;;;17.38;100.00
79309;BME280;68767;53.078;7.386;2023-07-13T07:06:25;101528.00;;;17.50;100.00
79309;BME280;68767;53.078;7.386;2023-07-13T07:08:52;101534.88;;;17.60;100.00
79309;BME280;68767;53.078;7.386;2023-07-13T07:11:21;101541.00;;;17.57;100.00
79309;BME280;68767;53.078;7.386;2023-07-13T07:13:53;101534.94;;;17.76;100.00
79309;BME280;68767;53.078;7.386;2023-07-13T07:16:20;101537.50;;;18.00;100.00
79309;BME280;68767;53.078;7.386;2023-07-13T07:18:47;101530.22;;;17.88;100.00
79309;BME280;68767;53.078;7.386;2023-07-13T07:21:15;101530.91;;;18.01;100.00
79309;BME280;68767;53.078;7.386;2023-07-13T07:23:42;101539.69;;;17.94;100.00
79309;BME280;68767;53.078;7.386;2023-07-13T07:26:09;101534.84;;;18.04;100.00
79309;BME280;68767;53.078;7.386;2023-07-13T07:28:37;101532.59;;;18.06;100.00
79309;BME280;68767;53.078;7.386;2023-07-13T07:31:11;101535.22;;;18.34;100.00
79309;BME280;68767;53.078;7.386;2023-07-13T07:33:41;101537.56;;;18.51;100.00
79309;BME280;68767;53.078;7.386;2023-07-13T07:36:08;101537.84;;;18.46;100.00
79309;BME280;68767;53.078;7.386;2023-07-13T07:38:38;101538.34;;;18.67;100.00
79309;BME280;68767;53.078;7.386;2023-07-13T07:41:05;101548.97;;;18.72;100.00
79309;BME280;68767;53.078;7.386;2023-07-13T07:43:35;101535.91;;;18.62;100.00
79309;BME280;68767;53.078;7.386;2023-07-13T07:46:03;101535.53;;;18.64;100.00
79309;BME280;68767;53.078;7.386;2023-07-13T07:48:30;101539.47;;;18.82;100.00
79309;BME280;68767;53.078;7.386;2023-07-13T07:50:57;101537.25;;;18.88;100.00
79309;BME280;68767;53.078;7.386;2023-07-13T07:53:24;101534.75;;;18.98;100.00
79309;BME280;68767;53.078;7.386;2023-07-13T07:55:51;101530.41;;;19.13;100.00
79309;BME280;68767;53.078;7.386;2023-07-13T07:58:21;101531.69;;;19.39;100.00
79309;BME280;68767;53.078;7.386;2023-07-13T08:00:51;101528.44;;;19.52;100.00
79309;BME280;68767;53.078;7.386;2023-07-13T08:03:21;101534.47;;;19.42;100.00
79309;BME280;68767;53.078;7.386;2023-07-13T08:05:54;101527.28;;;19.73;100.00
79309;BME280;68767;53.078;7.386;2023-07-13T08:08:24;101536.56;;;19.91;100.00
79309;BME280;68767;53.078;7.386;2023-07-13T08:10:52;101527.34;;;19.99;97.92
79309;BME280;68767;53.078;7.386;2023-07-13T08:13:25;101529.13;;;19.88;96.23
79309;BME280;68767;53.078;7.386;2023-07-13T08:15:52;101529.28;;;19.76;95.82
79309;BME280;68767;53.078;7.386;2023-07-13T08:18:19;101527.22;;;19.69;96.61
79309;BME280;68767;53.078;7.386;2023-07-13T08:20:46;101540.06;;;19.49;96.75
79309;BME280;68767;53.078;7.386;2023-07-13T08:23:13;101532.53;;;19.43;98.33
79309;BME280;68767;53.078;7.386;2023-07-13T08:25:40;101545.75;;;19.60;98.57
79309;BME280;68767;53.078;7.386;2023-07-13T08:28:06;101543.38;;;19.78;97.62
79309;BME280;68767;53.078;7.386;2023-07-13T08:30:34;101552.09;;;20.10;95.54
79309;BME280;68767;53.078;7.386;2023-07-13T08:33:04;101553.47;;;20.00;91.03
79309;BME280;68767;53.078;7.386;2023-07-13T08:35:30;101549.84;;;19.92;93.66
79309;BME280;68767;53.078;7.386;2023-07-13T08:37:57;101549.19;;;19.99;94.14
79309;BME280;68767;53.078;7.386;2023-07-13T08:40:25;101556.44;;;19.91;93.64
79309;BME280;68767;53.078;7.386;2023-07-13T08:42:57;101559.03;;;20.04;93.69
79309;BME280;68767;53.078;7.386;2023-07-13T08:48:10;101559.06;;;20.53;92.79
79309;BME280;68767;53.078;7.386;2023-07-13T08:53:43;101573.56;;;19.50;94.46
79309;BME280;68767;53.078;7.386;2023-07-13T08:56:21;101560.84;;;18.99;98.30
79309;BME280;68767;53.078;7.386;2023-07-13T08:58:52;101572.84;;;18.63;100.00
79309;BME280;68767;53.078;7.386;2023-07-13T09:01:30;101571.72;;;18.17;100.00
79309;BME280;68767;53.078;7.386;2023-07-13T09:04:22;101577.66;;;17.63;100.00
79309;BME280;68767;53.078;7.386;2023-07-13T09:12:19;101590.66;;;17.29;100.00
79309;BME280;68767;53.078;7.386;2023-07-13T09:14:59;101583.91;;;17.23;100.00
79309;BME280;68767;53.078;7.386;2023-07-13T09:17:35;101584.69;;;17.24;100.00
79309;BME280;68767;53.078;7.386;2023-07-13T09:22:40;101575.75;;;17.23;100.00
79309;BME280;68767;53.078;7.386;2023-07-13T09:27:39;101578.06;;;17.49;100.00
79309;BME280;68767;53.078;7.386;2023-07-13T09:32:44;101587.78;;;17.50;100.00
79309;BME280;68767;53.078;7.386;2023-07-13T09:35:16;101605.59;;;17.35;100.00
79309;BME280;68767;53.078;7.386;2023-07-13T09:37:45;101608.59;;;17.06;100.00
79309;BME280;68767;53.078;7.386;2023-07-13T09:43:22;101601.88;;;16.30;100.00
79309;BME280;68767;53.078;7.386;2023-07-13T09:45:49;101612.34;;;16.07;100.00
79309;BME280;68767;53.078;7.386;2023-07-13T09:48:17;101651.91;;;15.87;100.00
79309;BME280;68767;53.078;7.386;2023-07-13T09:50:45;101666.56;;;15.44;100.00
79309;BME280;68767;53.078;7.386;2023-07-13T09:53:17;101658.25;;;14.99;100.00
79309;BME280;68767;53.078;7.386;2023-07-13T09:55:48;101646.50;;;14.57;100.00
79309;BME280;68767;53.078;7.386;2023-07-13T09:58:25;101633.44;;;14.59;100.00
79309;BME280;68767;53.078;7.386;2023-07-13T10:01:01;101623.41;;;14.59;100.00
79309;BME280;68767;53.078;7.386;2023-07-13T10:03:35;101622.69;;;14.80;100.00
79309;BME280;68767;53.078;7.386;2023-07-13T10:06:13;101621.66;;;14.93;100.00
79309;BME280;68767;53.078;7.386;2023-07-13T10:08:41;101621.75;;;15.05;100.00
79309;BME280;68767;53.078;7.386;2023-07-13T10:11:11;101614.63;;;15.22;100.00
79309;BME280;68767;53.078;7.386;2023-07-13T10:13:48;101613.53;;;15.43;100.00
79309;BME280;68767;53.078;7.386;2023-07-13T10:16:17;101620.47;;;15.53;100.00
79309;BME280;68767;53.078;7.386;2023-07-13T10:18:58;101624.31;;;15.73;100.00
79309;BME280;68767;53.078;7.386;2023-07-13T10:21:52;101632.53;;;15.64;100.00
79309;BME280;68767;53.078;7.386;2023-07-13T10:24:25;101640.69;;;15.56;100.00
79309;BME280;68767;53.078;7.386;2023-07-13T10:27:19;101640.72;;;15.47;100.00
79309;BME280;68767;53.078;7.386;2023-07-13T10:32:30;101655.13;;;15.39;100.00
79309;BME280;68767;53.078;7.386;2023-07-13T10:34:57;101661.38;;;15.39;100.00
79309;BME280;68767;53.078;7.386;2023-07-13T10:37:36;101655.69;;;15.32;100.00
79309;BME280;68767;53.078;7.386;2023-07-13T10:40:13;101658.03;;;15.55;100.00
79309;BME280;68767;53.078;7.386;2023-07-13T10:42:45;101654.06;;;15.61;100.00
79309;BME280;68767;53.078;7.386;2023-07-13T10:45:23;101666.34;;;15.79;100.00
79309;BME280;68767;53.078;7.386;2023-07-13T10:47:53;101655.66;;;16.16;100.00
79309;BME280;68767;53.078;7.386;2023-07-13T10:50:25;101656.81;;;16.27;100.00
79309;BME280;68767;53.078;7.386;2023-07-13T10:52:55;101653.41;;;16.30;100.00
79309;BME280;68767;53.078;7.386;2023-07-13T10:58:12;101639.44;;;16.40;100.00
79309;BME280;68767;53.078;7.386;2023-07-13T11:00:51;101625.94;;;16.89;100.00
79309;BME280;68767;53.078;7.386;2023-07-13T11:03:22;101627.53;;;17.42;100.00
79309;BME280;68767;53.078;7.386;2023-07-13T11:05:51;101630.03;;;17.88;100.00
79309;BME280;68767;53.078;7.386;2023-07-13T11:08:32;101628.31;;;18.43;100.00
79309;BME280;68767;53.078;7.386;2023-07-13T11:10:59;101632.47;;;18.84;100.00
79309;BME280;68767;53.078;7.386;2023-07-13T11:13:37;101626.88;;;19.47;100.00
79309;BME280;68767;53.078;7.386;2023-07-13T11:21:29;101635.59;;;20.37;100.00
79309;BME280;68767;53.078;7.386;2023-07-13T11:24:02;101633.44;;;20.46;100.00
79309;BME280;68767;53.078;7.386;2023-07-13T11:26:42;101633.69;;;20.18;100.00
79309;BME280;68767;53.078;7.386;2023-07-13T11:32:10;101629.72;;;19.93;100.00
79309;BME280;68767;53.078;7.386;2023-07-13T11:34:48;101635.31;;;20.19;100.00
79309;BME280;68767;53.078;7.386;2023-07-13T11:37:17;101636.22;;;20.73;100.00
79309;BME280;68767;53.078;7.386;2023-07-13T11:39:47;101639.53;;;20.40;100.00
79309;BME280;68767;53.078;7.386;2023-07-13T11:42:17;101647.69;;;19.75;100.00
79309;BME280;68767;53.078;7.386;2023-07-13T11:44:52;101646.78;;;19.32;100.00
79309;BME280;68767;53.078;7.386;2023-07-13T11:47:40;101654.06;;;18.93;100.00
79309;BME280;68767;53.078;7.386;2023-07-13T11:50:18;101652.66;;;18.51;100.00
79309;BME280;68767;53.078;7.386;2023-07-13T11:52:45;101655.56;;;18.59;100.00
79309;BME280;68767;53.078;7.386;2023-07-13T11:55:20;101658.91;;;18.68;100.00
79309;BME280;68767;53.078;7.386;2023-07-13T11:57:54;101659.34;;;18.54;100.00
79309;BME280;68767;53.078;7.386;2023-07-13T12:00:26;101657.13;;;18.60;100.00
79309;BME280;68767;53.078;7.386;2023-07-13T12:02:56;101658.69;;;18.45;100.00
79309;BME280;68767;53.078;7.386;2023-07-13T12:05:24;101662.47;;;18.40;100.00
79309;BME280;68767;53.078;7.386;2023-07-13T12:07:51;101664.03;;;18.25;100.00
79309;BME280;68767;53.078;7.386;2023-07-13T12:10:28;101666.19;;;18.04;100.00
79309;BME280;68767;53.078;7.386;2023-07-13T12:12:56;101670.38;;;17.74;100.00
79309;BME280;68767;53.078;7.386;2023-07-13T12:15:29;101666.72;;;17.41;100.00
79309;BME280;68767;53.078;7.386;2023-07-13T12:18:02;101670.38;;;17.21;100.00
79309;BME280;68767;53.078;7.386;2023-07-13T12:20:35;101685.06;;;17.20;100.00
79309;BME280;68767;53.078;7.386;2023-07-13T12:25:46;101682.78;;;17.47;100.00
79309;BME280;68767;53.078;7.386;2023-07-13T12:31:02;101676.34;;;18.51;100.00
79309;BME280;68767;53.078;7.386;2023-07-13T12:33:31;101680.22;;;20.45;100.00
79309;BME280;68767;53.078;7.386;2023-07-13T12:36:04;101672.63;;;21.94;91.53
79309;BME280;68767;53.078;7.386;2023-07-13T12:38:32;101678.63;;;21.73;88.24
79309;BME280;68767;53.078;7.386;2023-07-13T12:41:01;101674.97;;;21.62;85.57
79309;BME280;68767;53.078;7.386;2023-07-13T12:43:34;101674.56;;;20.57;90.56
79309;BME280;68767;53.078;7.386;2023-07-13T12:46:17;101672.47;;;19.50;99.42
79309;BME280;68767;53.078;7.386;2023-07-13T12:48:48;101663.44;;;19.11;100.00
79309;BME280;68767;53.078;7.386;2023-07-13T12:51:29;101668.09;;;19.11;100.00
79309;BME280;68767;53.078;7.386;2023-07-13T12:54:06;101668.63;;;19.16;99.92
79309;BME280;68767;53.078;7.386;2023-07-13T12:56:39;101664.13;;;19.59;100.00
79309;BME280;68767;53.078;7.386;2023-07-13T12:59:06;101663.22;;;19.71;97.90
79309;BME280;68767;53.078;7.386;2023-07-13T13:01:36;101660.47;;;19.90;98.76
79309;BME280;68767;53.078;7.386;2023-07-13T13:04:04;101664.22;;;20.93;99.45
79309;BME280;68767;53.078;7.386;2023-07-13T13:06:35;101665.34;;;22.93;85.14
79309;BME280;68767;53.078;7.386;2023-07-13T13:09:03;101656.09;;;24.14;79.49
79309;BME280;68767;53.078;7.386;2023-07-13T13:11:31;101656.50;;;24.30;73.09
79309;BME280;68767;53.078;7.386;2023-07-13T13:13:58;101664.88;;;23.50;74.79
79309;BME280;68767;53.078;7.386;2023-07-13T13:18:56;101671.66;;;20.69;88.29
79309;BME280;68767;53.078;7.386;2023-07-13T13:21:26;101671.47;;;20.59;93.35
79309;BME280;68767;53.078;7.386;2023-07-13T13:23:53;101666.06;;;21.12;95.20
79309;BME280;68767;53.078;7.386;2023-07-13T13:26:22;101671.69;;;23.05;84.44
79309;BME280;68767;53.078;7.386;2023-07-13T13:28:49;101667.09;;;24.31;73.46
79309;BME280;68767;53.078;7.386;2023-07-13T13:31:16;101666.31;;;23.19;77.03
79309;BME280;68767;53.078;7.386;2023-07-13T13:33:44;101664.50;;;22.41;81.63
79309;BME280;68767;53.078;7.386;2023-07-13T13:36:22;101679.22;;;21.59;87.83
79309;BME280;68767;53.078;7.386;2023-07-13T13:38:50;101676.13;;;20.81;90.89
79309;BME280;68767;53.078;7.386;2023-07-13T13:41:17;101670.19;;;20.75;95.37